createdAt,value
2023-03-22T00:02:13.990Z,11.80
2023-03-22T00:04:42.851Z,12.60
2023-03-22T00:07:09.425Z,10.60
2023-03-22T00:09:36.616Z,13.75
2023-03-22T00:12:03.895Z,12.30
2023-03-22T00:14:30.430Z,14.00
2023-03-22T00:16:57.069Z,14.10
2023-03-22T00:19:23.818Z,11.50
2023-03-22T00:21:51.425Z,13.45
2023-03-22T00:24:17.950Z,14.93
2023-03-22T00:26:44.424Z,12.00
2023-03-22T00:29:10.855Z,16.40
2023-03-22T00:31:37.540Z,14.48
2023-03-22T00:34:04.350Z,14.30
2023-03-22T00:36:31.231Z,13.85
2023-03-22T00:38:57.721Z,13.38
2023-03-22T00:41:24.312Z,13.57
2023-03-22T00:43:51.471Z,14.07
2023-03-22T00:46:19.978Z,14.40
2023-03-22T00:48:46.565Z,18.02
2023-03-22T00:51:14.803Z,14.85
2023-03-22T00:53:43.461Z,12.98
2023-03-22T00:56:14.318Z,13.52
2023-03-22T00:59:01.941Z,13.80
2023-03-22T01:01:29.630Z,14.52
2023-03-22T01:03:57.077Z,14.00
2023-03-22T01:06:23.895Z,15.77
2023-03-22T01:08:50.817Z,19.83
2023-03-22T01:11:17.957Z,15.98
2023-03-22T01:13:47.894Z,17.63
2023-03-22T01:16:16.039Z,14.95
2023-03-22T01:18:42.879Z,14.13
2023-03-22T01:21:10.808Z,17.15
2023-03-22T01:23:40.863Z,15.90
2023-03-22T01:26:07.697Z,12.85
2023-03-22T01:28:34.322Z,16.63
2023-03-22T01:31:02.557Z,13.88
2023-03-22T01:33:30.034Z,16.27
2023-03-22T01:35:56.847Z,17.25
2023-03-22T01:38:24.696Z,19.60
2023-03-22T01:40:57.746Z,18.63
2023-03-22T01:43:25.989Z,19.75
2023-03-22T01:45:54.173Z,16.63
2023-03-22T01:48:34.521Z,19.20
2023-03-22T01:51:08.208Z,16.88
2023-03-22T01:54:17.289Z,20.83
2023-03-22T01:56:44.508Z,19.35
2023-03-22T01:59:19.405Z,18.23
2023-03-22T02:02:04.974Z,20.48
2023-03-22T02:04:38.961Z,18.50
2023-03-22T02:07:15.769Z,19.83
2023-03-22T02:09:46.051Z,20.02
2023-03-22T02:12:21.929Z,17.95
2023-03-22T02:14:55.686Z,16.30
2023-03-22T02:17:59.595Z,16.02
2023-03-22T02:20:41.845Z,19.55
2023-03-22T02:23:26.888Z,18.10
2023-03-22T02:26:14.559Z,18.27
2023-03-22T02:29:02.627Z,15.63
2023-03-22T02:31:57.163Z,18.92
2023-03-22T02:34:27.667Z,15.38
2023-03-22T02:37:19.592Z,17.55
2023-03-22T02:40:11.353Z,15.00
2023-03-22T02:42:48.261Z,15.00
2023-03-22T02:45:34.885Z,16.10
2023-03-22T02:48:11.780Z,14.88
2023-03-22T02:50:45.541Z,16.92
2023-03-22T02:53:12.105Z,18.55
2023-03-22T02:55:52.098Z,16.45
2023-03-22T02:58:27.302Z,14.85
2023-03-22T03:00:59.429Z,15.82
2023-03-22T03:03:30.046Z,17.67
2023-03-22T03:06:08.362Z,15.20
2023-03-22T03:08:37.444Z,14.45
2023-03-22T03:11:04.520Z,14.50
2023-03-22T03:13:31.409Z,16.65
2023-03-22T03:16:01.212Z,20.27
2023-03-22T03:18:46.571Z,13.55
2023-03-22T03:21:42.440Z,15.85
2023-03-22T03:24:11.153Z,17.92
2023-03-22T03:26:46.719Z,14.93
2023-03-22T03:29:26.748Z,14.85
2023-03-22T03:32:02.646Z,18.67
2023-03-22T03:34:38.650Z,16.38
2023-03-22T03:37:09.309Z,20.38
2023-03-22T03:39:44.566Z,16.30
2023-03-22T03:42:16.286Z,14.75
2023-03-22T03:44:43.400Z,16.77
2023-03-22T03:47:12.586Z,17.30
2023-03-22T03:49:39.319Z,16.33
2023-03-22T03:52:06.822Z,16.45
2023-03-22T03:54:33.411Z,15.75
2023-03-22T03:57:02.820Z,17.73
2023-03-22T03:59:30.580Z,15.25
2023-03-22T04:01:58.907Z,16.73
2023-03-22T04:04:29.741Z,19.55
2023-03-22T04:07:06.642Z,20.27
2023-03-22T04:09:38.221Z,15.07
2023-03-22T04:12:18.790Z,14.77
2023-03-22T04:15:06.026Z,14.55
2023-03-22T04:17:32.876Z,17.90
2023-03-22T04:19:59.514Z,15.63
2023-03-22T04:22:26.664Z,17.50
2023-03-22T04:24:53.237Z,17.13
2023-03-22T04:27:22.641Z,15.93
2023-03-22T04:30:12.707Z,15.90
2023-03-22T04:32:57.949Z,18.58
2023-03-22T04:35:37.322Z,16.55
2023-03-22T04:38:03.941Z,16.95
2023-03-22T04:40:36.525Z,16.92
2023-03-22T04:43:10.283Z,17.63
2023-03-22T04:45:49.611Z,14.07
2023-03-22T04:48:22.272Z,18.08
2023-03-22T04:50:53.241Z,17.45
2023-03-22T04:53:27.383Z,19.75
2023-03-22T04:55:58.314Z,20.08
2023-03-22T04:58:26.853Z,16.00
2023-03-22T05:00:53.877Z,18.63
2023-03-22T05:03:22.387Z,18.15
2023-03-22T05:05:56.226Z,15.25
2023-03-22T05:08:27.771Z,16.17
2023-03-22T05:10:55.760Z,17.20
2023-03-22T05:13:25.643Z,17.77
2023-03-22T05:15:54.220Z,20.23
2023-03-22T05:18:27.879Z,15.57
2023-03-22T05:20:57.318Z,16.13
2023-03-22T05:23:24.338Z,16.20
2023-03-22T05:25:54.451Z,16.05
2023-03-22T05:28:22.280Z,15.85
2023-03-22T05:30:57.392Z,16.27
2023-03-22T05:33:34.771Z,24.73
2023-03-22T05:36:02.296Z,16.13
2023-03-22T05:38:33.026Z,18.85
2023-03-22T05:41:01.313Z,19.65
2023-03-22T05:43:30.657Z,21.90
2023-03-22T05:45:57.621Z,16.52
2023-03-22T05:48:53.158Z,15.77
2023-03-22T05:51:19.921Z,14.20
2023-03-22T05:53:51.593Z,15.30
2023-03-22T05:56:24.337Z,16.63
2023-03-22T05:58:54.533Z,18.35
2023-03-22T06:01:23.150Z,16.25
2023-03-22T06:04:11.812Z,16.17
2023-03-22T06:06:50.423Z,16.75
2023-03-22T06:09:42.905Z,14.23
2023-03-22T06:12:16.206Z,13.93
2023-03-22T06:14:46.982Z,18.00
2023-03-22T06:17:20.350Z,16.70
2023-03-22T06:19:48.583Z,13.85
2023-03-22T06:22:16.580Z,14.52
2023-03-22T06:24:44.059Z,17.65
2023-03-22T06:27:17.876Z,18.13
2023-03-22T06:29:50.707Z,14.05
2023-03-22T06:32:23.565Z,14.70
2023-03-22T06:34:50.949Z,15.95
2023-03-22T06:37:20.045Z,16.73
2023-03-22T06:39:47.486Z,16.92
2023-03-22T06:42:14.533Z,14.15
2023-03-22T06:44:44.591Z,13.57
2023-03-22T06:47:14.232Z,11.38
2023-03-22T06:50:03.821Z,14.02
2023-03-22T06:52:59.330Z,13.60
2023-03-22T06:55:26.205Z,17.08
2023-03-22T06:57:52.868Z,16.55
2023-03-22T07:00:19.924Z,15.25
2023-03-22T07:02:46.427Z,17.75
2023-03-22T07:05:20.892Z,14.38
2023-03-22T07:07:47.514Z,17.02
2023-03-22T07:10:14.047Z,16.55
2023-03-22T07:12:40.651Z,15.30
2023-03-22T07:15:11.677Z,14.82
2023-03-22T07:17:56.795Z,13.65
2023-03-22T07:20:23.565Z,12.35
2023-03-22T07:22:51.327Z,12.75
2023-03-22T07:25:20.351Z,13.52
2023-03-22T07:27:50.599Z,13.63
2023-03-22T07:30:17.521Z,15.82
2023-03-22T07:32:48.082Z,13.15
2023-03-22T07:35:16.679Z,14.90
2023-03-22T07:37:43.513Z,15.35
2023-03-22T07:40:19.616Z,19.75
2023-03-22T07:42:48.936Z,13.50
2023-03-22T07:45:35.747Z,14.35
2023-03-22T07:48:23.579Z,12.40
2023-03-22T07:51:10.489Z,13.93
2023-03-22T07:53:37.394Z,14.75
2023-03-22T07:56:04.817Z,11.65
2023-03-22T07:58:31.550Z,13.55
2023-03-22T08:01:00.470Z,11.63
2023-03-22T08:03:45.541Z,12.07
2023-03-22T08:06:46.429Z,14.15
2023-03-22T08:09:13.072Z,12.68
2023-03-22T08:11:41.201Z,13.13
2023-03-22T08:14:09.014Z,12.02
2023-03-22T08:16:38.708Z,10.10
2023-03-22T08:19:06.005Z,12.77
2023-03-22T08:21:36.308Z,11.77
2023-03-22T08:24:03.944Z,13.32
2023-03-22T08:26:49.713Z,12.70
2023-03-22T08:29:25.131Z,9.52
2023-03-22T08:31:51.880Z,13.55
2023-03-22T08:34:18.758Z,11.70
2023-03-22T08:36:46.214Z,12.43
2023-03-22T08:39:13.549Z,9.45
2023-03-22T08:41:56.577Z,10.70
2023-03-22T08:44:25.840Z,9.93
2023-03-22T08:46:53.312Z,9.68
2023-03-22T08:49:20.011Z,8.98
2023-03-22T08:51:52.510Z,12.43
2023-03-22T08:54:42.791Z,7.85
2023-03-22T08:57:29.441Z,11.82
2023-03-22T09:00:17.370Z,6.10
2023-03-22T09:02:52.089Z,8.77
2023-03-22T09:05:20.766Z,7.60
2023-03-22T09:07:52.279Z,7.47
2023-03-22T09:10:32.470Z,13.00
2023-03-22T09:13:00.187Z,10.52
2023-03-22T09:15:26.826Z,7.53
2023-03-22T09:18:11.716Z,8.63
2023-03-22T09:20:39.021Z,7.78
2023-03-22T09:23:07.735Z,8.32
2023-03-22T09:25:34.746Z,9.15
2023-03-22T09:28:02.367Z,7.10
2023-03-22T09:30:28.895Z,7.40
2023-03-22T09:32:55.743Z,7.68
2023-03-22T09:35:22.726Z,8.38
2023-03-22T09:37:58.828Z,6.93
2023-03-22T09:40:31.364Z,10.13
2023-03-22T09:43:02.779Z,9.20
2023-03-22T09:45:43.841Z,9.60
2023-03-22T09:48:17.185Z,7.50
2023-03-22T09:50:50.450Z,12.65
2023-03-22T09:53:18.017Z,7.40
2023-03-22T09:55:53.588Z,8.80
2023-03-22T09:58:29.287Z,11.10
2023-03-22T10:01:01.121Z,9.63
2023-03-22T10:03:42.921Z,8.10
2023-03-22T10:06:18.676Z,7.28
2023-03-22T10:09:14.430Z,7.60
2023-03-22T10:11:55.759Z,7.78
2023-03-22T10:14:38.154Z,10.00
2023-03-22T10:17:11.620Z,8.18
2023-03-22T10:19:59.140Z,8.18
2023-03-22T10:22:30.496Z,9.57
2023-03-22T10:24:57.917Z,8.32
2023-03-22T10:27:26.692Z,10.25
2023-03-22T10:29:59.713Z,7.95
2023-03-22T10:32:54.964Z,8.07
2023-03-22T10:35:23.778Z,6.80
2023-03-22T10:37:52.534Z,6.78
2023-03-22T10:40:24.537Z,9.45
2023-03-22T10:42:56.555Z,4.68
2023-03-22T10:45:25.816Z,5.40
2023-03-22T10:48:11.366Z,5.13
2023-03-22T10:50:44.327Z,5.15
2023-03-22T10:53:23.781Z,5.45
2023-03-22T10:55:50.378Z,6.22
2023-03-22T10:58:20.424Z,4.95
2023-03-22T11:00:49.742Z,9.98
2023-03-22T11:03:35.308Z,6.47
2023-03-22T11:06:07.461Z,3.92
2023-03-22T11:08:49.319Z,4.45
2023-03-22T11:11:26.613Z,5.72
2023-03-22T11:14:03.246Z,6.72
2023-03-22T11:16:31.438Z,6.47
2023-03-22T11:19:01.204Z,4.65
2023-03-22T11:21:33.457Z,6.05
2023-03-22T11:24:07.432Z,6.15
2023-03-22T11:26:40.509Z,6.82
2023-03-22T11:29:16.670Z,4.78
2023-03-22T11:31:58.699Z,8.40
2023-03-22T11:34:29.059Z,5.05
2023-03-22T11:36:59.268Z,4.50
2023-03-22T11:39:28.597Z,6.13
2023-03-22T11:42:01.700Z,4.57
2023-03-22T11:44:34.195Z,3.80
2023-03-22T11:47:02.853Z,6.57
2023-03-22T11:49:51.134Z,4.43
2023-03-22T11:52:21.730Z,4.45
2023-03-22T11:54:49.051Z,4.70
2023-03-22T11:57:29.058Z,3.25
2023-03-22T12:00:05.247Z,6.28
2023-03-22T12:02:38.089Z,4.35
2023-03-22T12:05:12.323Z,2.92
2023-03-22T12:07:41.533Z,3.63
2023-03-22T12:10:14.452Z,3.40
2023-03-22T12:12:46.996Z,3.30
2023-03-22T12:15:20.926Z,3.33
2023-03-22T12:17:54.914Z,4.35
2023-03-22T12:20:42.023Z,2.35
2023-03-22T12:23:15.439Z,3.30
2023-03-22T12:25:49.199Z,5.20
2023-03-22T12:28:20.744Z,5.38
2023-03-22T12:30:51.247Z,3.08
2023-03-22T12:33:26.772Z,3.10
2023-03-22T12:35:58.671Z,4.25
2023-03-22T12:38:34.070Z,5.68
2023-03-22T12:41:04.791Z,3.33
2023-03-22T12:43:54.662Z,3.92
2023-03-22T12:46:25.869Z,4.10
2023-03-22T12:49:01.045Z,5.20
2023-03-22T12:51:27.565Z,3.42
2023-03-22T12:53:57.554Z,5.72
2023-03-22T12:56:45.985Z,3.88
2023-03-22T12:59:18.559Z,3.55
2023-03-22T13:02:17.092Z,3.45
2023-03-22T13:04:43.629Z,2.47
2023-03-22T13:07:14.061Z,3.05
2023-03-22T13:09:47.483Z,3.13
2023-03-22T13:12:16.880Z,3.33
2023-03-22T13:14:52.611Z,4.03
2023-03-22T13:17:25.719Z,3.05
2023-03-22T13:20:07.856Z,3.75
2023-03-22T13:22:43.383Z,7.65
2023-03-22T13:25:10.292Z,2.15
2023-03-22T13:27:57.826Z,2.08
2023-03-22T13:30:33.142Z,2.10
2023-03-22T13:33:09.790Z,3.00
2023-03-22T13:35:39.670Z,3.67
2023-03-22T13:38:19.558Z,3.78
2023-03-22T13:40:56.447Z,2.72
2023-03-22T13:43:30.906Z,2.25
2023-03-22T13:46:10.405Z,3.35
2023-03-22T13:48:42.472Z,1.33
2023-03-22T13:51:14.092Z,4.22
2023-03-22T13:53:49.601Z,3.92
2023-03-22T13:56:31.762Z,3.65
2023-03-22T13:58:59.722Z,1.67
2023-03-22T14:01:29.379Z,2.03
2023-03-22T14:04:05.313Z,2.42
2023-03-22T14:06:39.028Z,2.58
2023-03-22T14:09:21.221Z,1.58
2023-03-22T14:11:57.093Z,3.10
2023-03-22T14:14:29.945Z,2.75
2023-03-22T14:17:05.692Z,2.63
2023-03-22T14:19:34.707Z,2.28
